KEFT Airport (Monroe Muni) Information

FAA: EFT - ICAO: KEFT

KEFT Airport Location

State Wisconsin
County Green
City Monroe
KEFT Airport is 3 miles northeast of Monroe, WI.
Latitude 42-36-53.6425N
Longitude 089-35-25.4522W
Elevation 1,085ft

KEFT Airport METARs

METAR KEFT 240955Z AUTO 25009KT 10SM CLR 12/06 A2995 RMK AO2 T01200055
Altimeter 29.95"
Temperature 12.0°C (53.6°F)
Wind 250° at 9KT
Clouds Skies are clear.
Visibility 10.0mi
Time observed: 2021-09-24T09:55:00Z

KEFT Airport Details

Status Operational
Activation November 1963
Ownership Public
Usage Public
Chart CHICAGO
ATC on-site No
Beacon schedule sunset-sunrise
Beacon color clear green

KEFT Airport Contacts

Owner CITY OF MONROE
Owner address 1110 18TH AVENUE, MONROE, WI 53566
Owner phone 608-329-4101
Manager FRED EBERT
Manager address W5125 APPLE AVE, MEDFORD, WI 54451
Manager phone 715-678-2152

KEFT Airport (Monroe Muni) Radio Frequencies

KEFT (Airport) Radio Frequencies

UNICOM 123.05
Common traffic advisory frequency (CTAF) 123.05